createdAt,value
2023-01-25T00:01:05.439Z,6.63
2023-01-25T00:03:34.085Z,6.80
2023-01-25T00:06:03.689Z,7.03
2023-01-25T00:08:32.573Z,6.60
2023-01-25T00:11:01.098Z,6.17
2023-01-25T00:13:36.262Z,6.07
2023-01-25T00:16:05.070Z,6.17
2023-01-25T00:18:34.458Z,5.70
2023-01-25T00:21:13.184Z,6.13
2023-01-25T00:23:41.697Z,7.17
2023-01-25T00:26:10.769Z,6.00
2023-01-25T00:28:40.983Z,5.80
2023-01-25T00:31:11.778Z,6.60
2023-01-25T00:33:46.754Z,6.77
2023-01-25T00:36:29.358Z,6.13
2023-01-25T00:38:59.681Z,6.13
2023-01-25T00:41:30.505Z,6.23
2023-01-25T00:44:00.320Z,5.17
2023-01-25T00:46:28.741Z,5.70
2023-01-25T00:48:57.868Z,6.50
2023-01-25T00:51:26.614Z,5.80
2023-01-25T00:53:55.242Z,6.17
2023-01-25T00:56:23.725Z,6.10
2023-01-25T00:58:52.095Z,6.10
2023-01-25T01:01:22.594Z,6.60
2023-01-25T01:03:53.445Z,6.30
2023-01-25T01:06:22.152Z,6.23
2023-01-25T01:08:50.836Z,6.63
2023-01-25T01:11:19.256Z,6.23
2023-01-25T01:13:47.853Z,6.37
2023-01-25T01:16:16.390Z,6.83
2023-01-25T01:18:48.009Z,6.00
2023-01-25T01:21:16.541Z,5.63
2023-01-25T01:23:45.502Z,5.67
2023-01-25T01:26:14.954Z,5.93
2023-01-25T01:28:43.874Z,6.47
2023-01-25T01:31:13.363Z,5.73
2023-01-25T01:33:42.088Z,5.67
2023-01-25T01:36:13.560Z,7.50
2023-01-25T01:38:42.547Z,6.30
2023-01-25T01:41:11.384Z,6.13
2023-01-25T01:43:39.876Z,6.90
2023-01-25T01:46:12.236Z,6.60
2023-01-25T01:48:42.534Z,6.00
2023-01-25T01:51:18.024Z,6.17
2023-01-25T01:53:50.049Z,6.27
2023-01-25T01:56:21.178Z,6.40
2023-01-25T01:58:51.721Z,6.70
2023-01-25T02:01:21.476Z,6.70
2023-01-25T02:03:50.337Z,5.77
2023-01-25T02:06:25.851Z,5.63
2023-01-25T02:08:55.596Z,6.37
2023-01-25T02:11:24.398Z,6.13
2023-01-25T02:13:53.556Z,7.10
2023-01-25T02:16:27.657Z,6.80
2023-01-25T02:18:58.945Z,6.20
2023-01-25T02:21:29.354Z,6.43
2023-01-25T02:23:59.846Z,6.33
2023-01-25T02:26:29.983Z,6.50
2023-01-25T02:29:01.730Z,7.30
2023-01-25T02:31:31.438Z,6.30
2023-01-25T02:34:00.133Z,6.43
2023-01-25T02:36:30.687Z,7.13
2023-01-25T02:39:01.392Z,6.13
2023-01-25T02:41:34.867Z,6.40
2023-01-25T02:44:04.503Z,5.77
2023-01-25T02:46:34.279Z,6.93
2023-01-25T02:49:03.134Z,6.23
2023-01-25T02:51:34.515Z,6.87
2023-01-25T02:54:03.700Z,7.60
2023-01-25T02:56:34.066Z,6.30
2023-01-25T02:59:06.128Z,7.03
2023-01-25T03:01:34.840Z,6.77
2023-01-25T03:04:03.835Z,6.73
2023-01-25T03:06:32.633Z,6.93
2023-01-25T03:09:01.449Z,6.93
2023-01-25T03:11:30.409Z,7.30
2023-01-25T03:14:00.415Z,5.40
2023-01-25T03:16:29.573Z,6.50
2023-01-25T03:18:58.283Z,8.03
2023-01-25T03:21:27.072Z,7.47
2023-01-25T03:23:59.443Z,7.57
2023-01-25T03:26:28.572Z,6.87
2023-01-25T03:28:57.646Z,6.60
2023-01-25T03:31:27.556Z,7.30
2023-01-25T03:33:59.508Z,7.73
2023-01-25T03:36:28.276Z,7.23
2023-01-25T03:38:57.156Z,5.80
2023-01-25T03:41:25.973Z,6.63
2023-01-25T03:43:54.561Z,5.50
2023-01-25T03:46:23.041Z,5.97
2023-01-25T03:48:52.854Z,6.80
2023-01-25T03:51:21.350Z,7.17
2023-01-25T03:53:49.810Z,5.60
2023-01-25T03:56:20.614Z,6.17
2023-01-25T03:58:49.449Z,5.50
2023-01-25T04:01:18.059Z,5.53
2023-01-25T04:03:46.889Z,6.97
2023-01-25T04:06:16.888Z,6.03
2023-01-25T04:08:45.395Z,5.87
2023-01-25T04:11:13.960Z,5.30
2023-01-25T04:13:42.802Z,7.30
2023-01-25T04:16:12.654Z,6.13
2023-01-25T04:18:41.778Z,5.47
2023-01-25T04:21:10.800Z,5.60
2023-01-25T04:23:40.935Z,6.10
2023-01-25T04:26:15.041Z,4.83
2023-01-25T04:28:45.126Z,5.33
2023-01-25T04:31:13.777Z,5.07
2023-01-25T04:33:42.251Z,6.07
2023-01-25T04:36:10.801Z,7.13
2023-01-25T04:38:42.250Z,7.80
2023-01-25T04:41:11.199Z,7.63
2023-01-25T04:43:39.685Z,8.13
2023-01-25T04:46:08.506Z,7.87
2023-01-25T04:48:37.369Z,9.00
2023-01-25T04:51:06.026Z,7.43
2023-01-25T04:53:37.372Z,9.30
2023-01-25T04:56:07.983Z,9.40
2023-01-25T04:58:36.511Z,8.43
2023-01-25T05:01:05.756Z,9.87
2023-01-25T05:03:34.252Z,10.47
2023-01-25T05:06:02.928Z,7.73
2023-01-25T05:08:31.687Z,8.83
2023-01-25T05:11:00.142Z,9.83
2023-01-25T05:13:29.961Z,10.00
2023-01-25T05:15:59.717Z,8.83
2023-01-25T05:18:35.777Z,11.80
2023-01-25T05:21:31.184Z,9.53
2023-01-25T05:24:00.324Z,8.33
2023-01-25T05:26:46.463Z,8.87
2023-01-25T05:29:16.614Z,9.77
2023-01-25T05:31:45.715Z,9.83
2023-01-25T05:34:14.494Z,10.63
2023-01-25T05:36:42.975Z,16.17
2023-01-25T05:39:11.563Z,12.57
2023-01-25T05:41:40.371Z,10.37
2023-01-25T05:44:09.400Z,10.20
2023-01-25T05:46:39.297Z,10.53
2023-01-25T05:49:08.118Z,9.47
2023-01-25T05:51:36.823Z,9.77
2023-01-25T05:54:05.628Z,9.00
2023-01-25T05:56:34.281Z,10.40
2023-01-25T05:59:03.644Z,9.67
2023-01-25T06:01:32.410Z,8.43
2023-01-25T06:04:02.376Z,7.63
2023-01-25T06:06:30.886Z,8.47
2023-01-25T06:08:59.970Z,8.70
2023-01-25T06:11:28.424Z,9.07
2023-01-25T06:13:57.049Z,9.97
2023-01-25T06:16:25.988Z,8.40
2023-01-25T06:18:54.544Z,9.03
2023-01-25T06:21:24.506Z,8.27
2023-01-25T06:23:53.084Z,8.50
2023-01-25T06:26:21.755Z,8.73
2023-01-25T06:28:51.992Z,8.37
2023-01-25T06:31:21.388Z,6.33
2023-01-25T06:33:50.782Z,8.37
2023-01-25T06:36:20.874Z,6.90
2023-01-25T06:38:51.789Z,8.53
2023-01-25T06:41:20.929Z,8.10
2023-01-25T06:43:52.747Z,7.17
2023-01-25T06:46:22.105Z,6.50
2023-01-25T06:48:51.186Z,8.47
2023-01-25T06:51:19.913Z,7.00
2023-01-25T06:53:48.949Z,6.77
2023-01-25T06:56:21.172Z,7.67
2023-01-25T06:58:50.671Z,6.60
2023-01-25T07:01:20.865Z,6.77
2023-01-25T07:03:53.041Z,6.50
2023-01-25T07:06:21.787Z,8.10
2023-01-25T07:08:50.436Z,9.27
2023-01-25T07:11:20.429Z,8.63
2023-01-25T07:13:49.773Z,7.17
2023-01-25T07:16:21.090Z,7.27
2023-01-25T07:18:49.934Z,7.90
2023-01-25T07:21:20.445Z,7.90
2023-01-25T07:23:49.317Z,8.50
2023-01-25T07:26:19.063Z,9.17
2023-01-25T07:28:49.502Z,8.97
2023-01-25T07:31:18.904Z,8.80
2023-01-25T07:33:50.439Z,8.80
2023-01-25T07:36:19.366Z,9.40
2023-01-25T07:38:47.975Z,11.17
2023-01-25T07:41:17.477Z,9.70
2023-01-25T07:43:45.901Z,10.33
2023-01-25T07:46:16.516Z,9.00
2023-01-25T07:48:48.034Z,9.07
2023-01-25T07:51:28.185Z,9.53
2023-01-25T07:53:57.514Z,8.17
2023-01-25T07:56:26.994Z,10.83
2023-01-25T07:58:55.677Z,9.17
2023-01-25T08:01:26.209Z,10.13
2023-01-25T08:03:56.358Z,9.50
2023-01-25T08:06:27.366Z,8.97
2023-01-25T08:08:56.537Z,7.97
2023-01-25T08:11:26.932Z,10.83
2023-01-25T08:13:55.440Z,9.77
2023-01-25T08:16:28.474Z,9.47
2023-01-25T08:18:57.855Z,15.90
2023-01-25T08:21:30.149Z,10.17
2023-01-25T08:23:59.927Z,9.60
2023-01-25T08:26:29.580Z,11.37
2023-01-25T08:28:58.540Z,8.33
2023-01-25T08:31:29.607Z,9.63
2023-01-25T08:33:58.661Z,9.90
2023-01-25T08:36:28.206Z,8.77
2023-01-25T08:38:57.772Z,9.17
2023-01-25T08:41:27.895Z,7.33
2023-01-25T08:43:56.791Z,8.30
2023-01-25T08:46:25.801Z,8.07
2023-01-25T08:48:57.963Z,8.10
2023-01-25T08:51:26.954Z,8.57
2023-01-25T08:53:55.898Z,6.80
2023-01-25T08:56:24.662Z,8.43
2023-01-25T08:58:53.382Z,9.90
2023-01-25T09:01:23.047Z,7.37
2023-01-25T09:03:52.319Z,7.73
2023-01-25T09:06:22.224Z,9.77
2023-01-25T09:08:52.038Z,10.00
2023-01-25T09:11:21.598Z,9.87
2023-01-25T09:13:53.968Z,9.70
2023-01-25T09:16:28.727Z,8.90
2023-01-25T09:18:58.275Z,9.70
2023-01-25T09:21:28.196Z,10.30
2023-01-25T09:24:06.004Z,9.67
2023-01-25T09:26:35.143Z,9.97
2023-01-25T09:29:03.791Z,10.00
2023-01-25T09:31:32.306Z,8.30
2023-01-25T09:34:01.034Z,9.83
2023-01-25T09:36:31.006Z,8.43
2023-01-25T09:39:00.032Z,11.03
2023-01-25T09:41:46.312Z,10.57
2023-01-25T09:44:23.117Z,10.20
2023-01-25T09:46:53.673Z,8.63
2023-01-25T09:49:26.563Z,9.53
2023-01-25T09:52:00.802Z,10.57
2023-01-25T09:54:33.793Z,10.83
2023-01-25T09:57:04.873Z,9.83
2023-01-25T09:59:33.609Z,9.77
2023-01-25T10:02:04.346Z,14.07
2023-01-25T10:04:37.112Z,9.00
2023-01-25T10:07:13.211Z,10.80
2023-01-25T10:09:43.921Z,9.47
2023-01-25T10:12:23.864Z,7.90
2023-01-25T10:14:52.819Z,8.97
2023-01-25T10:17:31.889Z,8.00
2023-01-25T10:20:09.215Z,9.03
2023-01-25T10:22:42.441Z,7.40
2023-01-25T10:25:31.061Z,8.60
2023-01-25T10:28:06.459Z,6.40
2023-01-25T10:30:38.024Z,8.20
2023-01-25T10:33:12.795Z,8.67
2023-01-25T10:35:47.224Z,7.30
2023-01-25T10:38:21.304Z,7.97
2023-01-25T10:40:52.201Z,8.17
2023-01-25T10:43:26.317Z,8.20
2023-01-25T10:45:55.023Z,8.90
2023-01-25T10:48:25.064Z,9.40
2023-01-25T10:50:54.711Z,7.00
2023-01-25T10:53:35.434Z,10.07
2023-01-25T10:56:23.176Z,8.23
2023-01-25T10:58:54.585Z,7.77
2023-01-25T11:01:28.598Z,6.07
2023-01-25T11:03:57.324Z,7.03
2023-01-25T11:06:32.942Z,7.67
2023-01-25T11:09:03.862Z,8.73
2023-01-25T11:11:40.632Z,7.57
2023-01-25T11:14:17.874Z,7.50
2023-01-25T11:16:48.524Z,8.87
2023-01-25T11:19:28.157Z,7.57
2023-01-25T11:21:58.781Z,8.07
2023-01-25T11:24:30.160Z,6.93
2023-01-25T11:27:13.960Z,6.93
2023-01-25T11:29:42.487Z,7.20
2023-01-25T11:32:20.502Z,8.47
2023-01-25T11:34:49.468Z,8.33
2023-01-25T11:37:23.548Z,8.83
2023-01-25T11:39:58.018Z,8.23
2023-01-25T11:42:31.470Z,9.23
2023-01-25T11:45:18.387Z,10.27
2023-01-25T11:47:54.640Z,7.30
2023-01-25T11:50:26.066Z,8.87
2023-01-25T11:53:01.154Z,7.87
2023-01-25T11:55:33.596Z,7.93
2023-01-25T11:58:09.422Z,8.17
2023-01-25T12:00:43.589Z,9.43
2023-01-25T12:03:39.194Z,12.03
2023-01-25T12:06:10.071Z,10.03
2023-01-25T12:08:48.492Z,7.87
2023-01-25T12:11:22.781Z,7.20
2023-01-25T12:13:56.399Z,8.10
2023-01-25T12:16:37.645Z,8.03
2023-01-25T12:19:13.595Z,7.93
2023-01-25T12:22:00.359Z,8.17
2023-01-25T12:24:37.997Z,8.50
2023-01-25T12:27:16.620Z,9.10
2023-01-25T12:29:45.955Z,8.00
2023-01-25T12:32:19.593Z,6.40
2023-01-25T12:34:50.546Z,8.70
2023-01-25T12:37:20.956Z,8.47
2023-01-25T12:39:51.290Z,7.13
2023-01-25T12:42:23.559Z,7.60
2023-01-25T12:44:54.529Z,9.27
2023-01-25T12:47:25.057Z,8.63
2023-01-25T12:49:55.909Z,9.10
2023-01-25T12:52:26.341Z,7.57
2023-01-25T12:54:57.012Z,8.40
2023-01-25T12:57:29.681Z,9.17
2023-01-25T13:00:02.242Z,8.83
2023-01-25T13:02:44.099Z,9.07
2023-01-25T13:05:17.502Z,7.27
2023-01-25T13:07:47.085Z,8.33
2023-01-25T13:10:19.707Z,8.17
2023-01-25T13:12:57.384Z,8.53
2023-01-25T13:15:39.833Z,7.87
2023-01-25T13:18:27.990Z,8.77
2023-01-25T13:20:57.414Z,8.90
2023-01-25T13:23:32.835Z,9.07
2023-01-25T13:26:19.684Z,10.27
2023-01-25T13:28:50.118Z,10.17
2023-01-25T13:31:50.013Z,8.60
2023-01-25T13:34:44.799Z,8.27
2023-01-25T13:37:18.666Z,9.53
2023-01-25T13:39:49.471Z,9.33
2023-01-25T13:42:24.494Z,9.53
2023-01-25T13:44:55.892Z,7.17
2023-01-25T13:47:26.215Z,8.77
2023-01-25T13:49:57.977Z,7.33
2023-01-25T13:52:27.819Z,9.97
2023-01-25T13:55:03.493Z,7.33
2023-01-25T13:57:33.461Z,6.63
2023-01-25T14:00:10.589Z,9.07
2023-01-25T14:02:40.673Z,7.97
2023-01-25T14:05:19.210Z,8.97
2023-01-25T14:07:49.134Z,8.33
2023-01-25T14:10:23.467Z,8.20
2023-01-25T14:12:53.114Z,7.33
2023-01-25T14:15:24.390Z,7.43
2023-01-25T14:18:08.754Z,6.93
2023-01-25T14:20:37.158Z,9.33
2023-01-25T14:23:06.626Z,8.10
2023-01-25T14:25:35.733Z,8.17
2023-01-25T14:28:05.062Z,9.37
2023-01-25T14:30:36.148Z,9.00
2023-01-25T14:33:06.495Z,8.30
2023-01-25T14:35:54.759Z,9.63
2023-01-25T14:38:26.578Z,10.17
2023-01-25T14:40:56.853Z,8.23
2023-01-25T14:43:25.787Z,9.80
2023-01-25T14:45:56.248Z,11.67
2023-01-25T14:48:41.889Z,10.00
2023-01-25T14:51:16.416Z,8.47
2023-01-25T14:53:45.899Z,9.53
2023-01-25T14:56:20.530Z,9.83
2023-01-25T14:58:59.019Z,9.77
2023-01-25T15:01:32.508Z,8.97
2023-01-25T15:04:01.231Z,9.03
2023-01-25T15:06:29.900Z,10.37
2023-01-25T15:08:58.497Z,8.03
2023-01-25T15:11:38.980Z,10.07
2023-01-25T15:14:18.186Z,9.47
2023-01-25T15:16:49.289Z,9.30
2023-01-25T15:19:24.850Z,9.47
2023-01-25T15:21:53.714Z,8.50
2023-01-25T15:24:22.220Z,9.47
2023-01-25T15:26:53.049Z,8.30
2023-01-25T15:29:22.708Z,9.10
2023-01-25T15:31:53.396Z,11.73
2023-01-25T15:34:23.263Z,9.07
2023-01-25T15:36:52.596Z,9.70
2023-01-25T15:39:22.116Z,9.70
2023-01-25T15:41:50.850Z,8.40
2023-01-25T15:44:20.498Z,8.80
2023-01-25T15:46:52.344Z,10.00
2023-01-25T15:49:26.193Z,9.73
2023-01-25T15:51:54.681Z,8.93
2023-01-25T15:54:24.298Z,9.10
2023-01-25T15:56:53.763Z,10.90
2023-01-25T15:59:22.593Z,8.97
2023-01-25T16:01:51.219Z,8.43
2023-01-25T16:04:20.144Z,9.73
2023-01-25T16:06:54.592Z,9.73
2023-01-25T16:09:24.074Z,8.13
2023-01-25T16:11:53.891Z,8.23
2023-01-25T16:14:23.826Z,9.10
2023-01-25T16:16:53.870Z,9.60
2023-01-25T16:19:23.334Z,9.30
2023-01-25T16:21:53.489Z,8.50
2023-01-25T16:24:21.966Z,7.23
2023-01-25T16:26:52.995Z,8.53
2023-01-25T16:29:23.086Z,8.47
2023-01-25T16:31:51.954Z,7.77
2023-01-25T16:34:21.123Z,8.63
2023-01-25T16:36:51.319Z,7.93
2023-01-25T16:39:22.783Z,9.77
2023-01-25T16:41:51.507Z,9.33
2023-01-25T16:44:20.131Z,9.33
2023-01-25T16:46:50.364Z,7.87
2023-01-25T16:49:20.209Z,8.30
2023-01-25T16:51:49.421Z,7.83
2023-01-25T16:54:19.883Z,6.80
2023-01-25T16:56:50.393Z,8.97
2023-01-25T16:59:19.689Z,7.77
2023-01-25T17:01:48.466Z,8.93
2023-01-25T17:04:17.110Z,8.77
2023-01-25T17:06:47.128Z,8.00
2023-01-25T17:09:23.552Z,9.07
2023-01-25T17:11:54.754Z,8.20
2023-01-25T17:14:24.605Z,9.73
2023-01-25T17:16:55.429Z,8.20
2023-01-25T17:19:24.098Z,9.23
2023-01-25T17:21:53.626Z,9.50
2023-01-25T17:24:22.978Z,8.60
2023-01-25T17:26:51.924Z,9.53
2023-01-25T17:29:22.734Z,11.70
2023-01-25T17:31:51.357Z,10.60
2023-01-25T17:34:21.826Z,12.03
2023-01-25T17:36:50.944Z,12.27
2023-01-25T17:39:20.585Z,10.50
2023-01-25T17:41:50.074Z,12.73
2023-01-25T17:44:20.618Z,11.63
2023-01-25T17:46:50.982Z,11.63
2023-01-25T17:49:19.484Z,12.47
2023-01-25T17:51:47.957Z,10.20
2023-01-25T17:54:16.381Z,11.33
2023-01-25T17:56:44.870Z,12.40
2023-01-25T17:59:13.558Z,10.20
2023-01-25T18:01:43.750Z,9.57
2023-01-25T18:04:17.780Z,11.73
2023-01-25T18:06:48.858Z,10.97
2023-01-25T18:09:17.397Z,12.07
2023-01-25T18:11:46.235Z,10.27
2023-01-25T18:14:17.014Z,11.27
2023-01-25T18:16:45.957Z,11.23
2023-01-25T18:19:15.951Z,12.67
2023-01-25T18:21:44.622Z,12.50
2023-01-25T18:24:24.940Z,13.07
2023-01-25T18:26:53.969Z,12.67
2023-01-25T18:29:37.655Z,13.27
2023-01-25T18:32:06.763Z,13.73
2023-01-25T18:34:37.052Z,14.47
2023-01-25T18:37:18.149Z,12.60
2023-01-25T18:39:46.707Z,11.20
2023-01-25T18:42:15.240Z,14.07
2023-01-25T18:44:48.447Z,13.80
2023-01-25T18:47:18.827Z,14.13
2023-01-25T18:49:49.682Z,14.47
2023-01-25T18:52:18.763Z,13.97
2023-01-25T18:54:47.378Z,16.77
2023-01-25T18:57:17.338Z,13.77
2023-01-25T18:59:46.326Z,17.47
2023-01-25T19:02:16.317Z,15.67
2023-01-25T19:04:45.580Z,16.20
2023-01-25T19:07:17.565Z,15.93
2023-01-25T19:09:48.339Z,22.23
2023-01-25T19:12:17.046Z,20.57
2023-01-25T19:14:46.891Z,20.27
2023-01-25T19:17:17.600Z,19.03
2023-01-25T19:19:46.354Z,19.07
2023-01-25T19:22:27.981Z,17.93
2023-01-25T19:25:05.807Z,20.43
2023-01-25T19:27:36.511Z,21.57
2023-01-25T19:30:07.007Z,22.60
2023-01-25T19:32:42.472Z,21.60
2023-01-25T19:35:12.538Z,21.07
2023-01-25T19:37:43.068Z,23.10
2023-01-25T19:40:12.303Z,22.43
2023-01-25T19:42:40.836Z,20.63
2023-01-25T19:45:10.239Z,21.87
2023-01-25T19:47:38.928Z,20.23
2023-01-25T19:50:08.183Z,17.87
2023-01-25T19:52:37.125Z,15.23
2023-01-25T19:55:07.873Z,15.87
2023-01-25T19:57:37.241Z,15.73
2023-01-25T20:00:06.516Z,16.80
2023-01-25T20:02:35.338Z,16.30
2023-01-25T20:05:05.390Z,16.83
2023-01-25T20:07:34.150Z,15.50
2023-01-25T20:10:02.631Z,15.33
2023-01-25T20:12:32.932Z,16.33
2023-01-25T20:15:01.544Z,17.63
2023-01-25T20:17:31.133Z,15.13
2023-01-25T20:19:59.671Z,17.63
2023-01-25T20:22:28.294Z,16.80
2023-01-25T20:24:56.859Z,15.40
2023-01-25T20:27:25.505Z,16.93
2023-01-25T20:29:55.701Z,14.87
2023-01-25T20:32:32.857Z,14.13
2023-01-25T20:35:03.591Z,17.93
2023-01-25T20:37:32.209Z,14.10
2023-01-25T20:40:00.713Z,16.43
2023-01-25T20:42:29.500Z,15.23
2023-01-25T20:44:59.567Z,13.60
2023-01-25T20:47:28.097Z,12.93
2023-01-25T20:49:56.581Z,14.07
2023-01-25T20:52:25.079Z,14.63
2023-01-25T20:54:54.327Z,13.73
2023-01-25T20:57:22.831Z,14.50
2023-01-25T20:59:51.516Z,14.70
2023-01-25T21:02:21.662Z,13.13
2023-01-25T21:04:50.428Z,13.33
2023-01-25T21:07:19.059Z,14.77
2023-01-25T21:09:47.672Z,16.23
2023-01-25T21:12:16.193Z,15.07
2023-01-25T21:14:44.720Z,15.73
2023-01-25T21:17:14.549Z,15.13
2023-01-25T21:19:44.567Z,17.07
2023-01-25T21:22:13.162Z,15.33
2023-01-25T21:24:41.596Z,16.40
2023-01-25T21:27:10.258Z,13.47
2023-01-25T21:29:38.681Z,15.17
2023-01-25T21:32:07.352Z,13.27
2023-01-25T21:34:35.978Z,13.23
2023-01-25T21:37:06.703Z,14.20
2023-01-25T21:39:35.559Z,13.73
2023-01-25T21:42:04.310Z,14.30
2023-01-25T21:44:50.518Z,14.83
2023-01-25T21:47:29.876Z,15.03
2023-01-25T21:50:16.778Z,15.07
2023-01-25T21:52:47.301Z,13.90
2023-01-25T21:55:15.961Z,15.57
2023-01-25T21:57:47.452Z,12.63
2023-01-25T22:00:17.230Z,17.37
2023-01-25T22:02:45.828Z,13.27
2023-01-25T22:05:14.311Z,15.00
2023-01-25T22:07:42.827Z,12.90
2023-01-25T22:10:13.473Z,14.90
2023-01-25T22:12:42.055Z,15.27
2023-01-25T22:15:10.756Z,14.47
2023-01-25T22:17:39.408Z,19.50
2023-01-25T22:20:09.012Z,18.83
2023-01-25T22:22:37.534Z,19.23
2023-01-25T22:25:06.657Z,17.63
2023-01-25T22:27:52.162Z,15.67
2023-01-25T22:30:20.665Z,17.17
2023-01-25T22:32:49.421Z,15.03
2023-01-25T22:35:25.992Z,15.80
2023-01-25T22:37:55.226Z,14.80
2023-01-25T22:40:23.764Z,18.03
2023-01-25T22:42:53.927Z,17.13
2023-01-25T22:45:22.369Z,19.87
2023-01-25T22:47:50.784Z,19.57
2023-01-25T22:50:19.385Z,18.03
2023-01-25T22:52:49.013Z,20.23
2023-01-25T22:55:17.988Z,22.07
2023-01-25T22:57:46.647Z,25.67
2023-01-25T23:00:17.277Z,26.67
2023-01-25T23:02:45.724Z,24.00
2023-01-25T23:05:14.209Z,22.93
2023-01-25T23:07:42.815Z,22.70
2023-01-25T23:10:12.196Z,23.77
2023-01-25T23:12:40.954Z,22.17
2023-01-25T23:15:15.682Z,19.43
2023-01-25T23:18:03.764Z,22.17
2023-01-25T23:20:32.291Z,22.73
2023-01-25T23:23:00.919Z,21.00
2023-01-25T23:25:29.551Z,22.70
2023-01-25T23:27:58.059Z,19.80
2023-01-25T23:30:26.644Z,22.53
2023-01-25T23:32:56.924Z,22.13
2023-01-25T23:35:26.163Z,22.13
2023-01-25T23:37:54.700Z,22.80
2023-01-25T23:40:23.319Z,21.57
2023-01-25T23:42:51.924Z,22.43
2023-01-25T23:45:20.556Z,20.80
2023-01-25T23:47:49.341Z,23.43
2023-01-25T23:50:19.472Z,22.07
2023-01-25T23:52:47.946Z,23.43
2023-01-25T23:55:16.506Z,23.47
2023-01-25T23:57:45.563Z,21.10
